createdAt,value
2017-07-07T00:02:11.898Z,76.60
2017-07-07T00:04:38.451Z,76.70
2017-07-07T00:07:04.750Z,76.80
2017-07-07T00:09:32.241Z,76.90
2017-07-07T00:11:59.650Z,76.50
2017-07-07T00:14:26.619Z,76.80
2017-07-07T00:16:52.888Z,77.40
2017-07-07T00:19:20.517Z,75.80
2017-07-07T00:21:46.782Z,75.80
2017-07-07T00:24:13.444Z,75.70
2017-07-07T00:26:40.313Z,75.70
2017-07-07T00:29:07.110Z,75.80
2017-07-07T00:31:33.770Z,75.50
2017-07-07T00:34:00.053Z,75.50
2017-07-07T00:36:26.839Z,75.50
2017-07-07T00:38:53.088Z,75.10
2017-07-07T00:41:19.964Z,74.80
2017-07-07T00:43:46.258Z,74.90
2017-07-07T00:46:12.536Z,75.10
2017-07-07T00:48:38.814Z,75.30
2017-07-07T00:51:05.066Z,75.80
2017-07-07T00:53:31.344Z,75.60
2017-07-07T00:55:58.587Z,75.70
2017-07-07T00:58:24.877Z,75.70
2017-07-07T01:00:51.123Z,76.00
2017-07-07T01:03:18.370Z,75.80
2017-07-07T01:05:44.628Z,76.30
2017-07-07T01:08:12.338Z,77.00
2017-07-07T01:10:38.947Z,77.00
2017-07-07T01:13:05.230Z,77.10
2017-07-07T01:15:31.538Z,76.70
2017-07-07T01:17:57.818Z,77.30
2017-07-07T01:20:24.098Z,77.00
2017-07-07T01:22:50.366Z,76.90
2017-07-07T01:25:16.631Z,77.10
2017-07-07T01:27:42.868Z,76.50
2017-07-07T01:30:09.157Z,76.70
2017-07-07T01:32:35.778Z,76.80
2017-07-07T01:35:02.909Z,76.80
2017-07-07T01:37:29.188Z,76.00
2017-07-07T01:39:56.046Z,75.80
2017-07-07T01:42:22.315Z,75.70
2017-07-07T01:44:48.595Z,75.90
2017-07-07T01:47:14.862Z,76.20
2017-07-07T01:49:41.860Z,75.80
2017-07-07T01:52:09.314Z,75.90
2017-07-07T01:54:37.515Z,75.90
2017-07-07T01:57:04.763Z,75.90
2017-07-07T01:59:32.677Z,75.60
2017-07-07T02:02:03.397Z,76.40
2017-07-07T02:04:30.349Z,76.70
2017-07-07T02:06:57.229Z,77.00
2017-07-07T02:09:23.502Z,77.10
2017-07-07T02:11:49.760Z,77.20
2017-07-07T02:14:16.402Z,78.60
2017-07-07T02:16:42.687Z,78.60
2017-07-07T02:19:08.976Z,78.90
2017-07-07T02:21:35.241Z,78.60
2017-07-07T02:24:01.493Z,78.60
2017-07-07T02:26:27.798Z,78.20
2017-07-07T02:28:54.046Z,77.90
2017-07-07T02:31:20.314Z,77.30
2017-07-07T02:33:46.589Z,77.00
2017-07-07T02:36:12.860Z,77.90
2017-07-07T02:38:39.115Z,78.70
2017-07-07T02:41:05.767Z,78.40
2017-07-07T02:43:32.011Z,78.50
2017-07-07T02:45:58.310Z,78.60
2017-07-07T02:48:24.623Z,77.90
2017-07-07T02:50:50.916Z,77.50
2017-07-07T02:53:17.176Z,77.10
2017-07-07T02:55:43.438Z,76.40
2017-07-07T02:58:09.674Z,76.10
2017-07-07T03:00:35.954Z,75.90
2017-07-07T03:03:02.195Z,75.60
2017-07-07T03:05:28.845Z,74.80
2017-07-07T03:07:55.469Z,74.70
2017-07-07T03:10:21.752Z,74.70
2017-07-07T03:12:48.016Z,75.00
2017-07-07T03:15:14.320Z,74.70
2017-07-07T03:17:40.571Z,74.00
2017-07-07T03:20:06.820Z,74.40
2017-07-07T03:22:33.463Z,74.00
2017-07-07T03:25:00.099Z,73.80
2017-07-07T03:27:26.720Z,73.80
2017-07-07T03:29:52.956Z,73.80
2017-07-07T03:32:19.607Z,73.50
2017-07-07T03:34:46.238Z,73.50
2017-07-07T03:37:12.909Z,73.10
2017-07-07T03:39:39.162Z,73.10
2017-07-07T03:42:05.440Z,71.90
2017-07-07T03:44:31.713Z,72.30
2017-07-07T03:46:57.976Z,72.80
2017-07-07T03:49:24.280Z,73.20
2017-07-07T03:51:50.555Z,72.90
2017-07-07T03:54:16.803Z,73.20
2017-07-07T03:56:43.089Z,72.80
2017-07-07T03:59:09.370Z,73.20
2017-07-07T04:01:35.642Z,72.90
2017-07-07T04:04:01.883Z,73.10
2017-07-07T04:06:28.171Z,73.20
2017-07-07T04:08:54.491Z,73.60
2017-07-07T04:11:20.771Z,73.70
2017-07-07T04:13:47.025Z,75.10
2017-07-07T04:16:13.289Z,75.30
2017-07-07T04:18:39.527Z,74.60
2017-07-07T04:21:05.843Z,74.10
2017-07-07T04:23:32.105Z,74.00
2017-07-07T04:25:58.380Z,73.60
2017-07-07T04:28:24.623Z,74.00
2017-07-07T04:30:50.906Z,74.40
2017-07-07T04:33:17.173Z,74.60
2017-07-07T04:35:43.711Z,74.50
2017-07-07T04:38:09.968Z,74.50
2017-07-07T04:40:36.231Z,74.60
2017-07-07T04:43:02.503Z,74.40
2017-07-07T04:45:28.744Z,74.30
2017-07-07T04:47:55.032Z,73.50
2017-07-07T04:50:21.311Z,73.80
2017-07-07T04:52:47.608Z,73.50
2017-07-07T04:55:13.861Z,72.90
2017-07-07T04:57:40.136Z,73.60
2017-07-07T05:00:06.424Z,73.60
2017-07-07T05:02:32.711Z,73.70
2017-07-07T05:04:59.339Z,73.00
2017-07-07T05:07:25.993Z,73.00
2017-07-07T05:09:52.268Z,73.00
2017-07-07T05:12:18.538Z,73.40
2017-07-07T05:14:44.792Z,72.70
2017-07-07T05:17:11.070Z,72.60
2017-07-07T05:19:37.324Z,72.50
2017-07-07T05:22:03.972Z,71.90
2017-07-07T05:24:30.631Z,71.40
2017-07-07T05:26:56.886Z,71.40
2017-07-07T05:29:23.132Z,70.50
2017-07-07T05:31:49.433Z,70.20
2017-07-07T05:34:15.722Z,70.10
2017-07-07T05:36:42.409Z,69.60
2017-07-07T05:39:08.690Z,69.60
2017-07-07T05:41:35.266Z,70.40
2017-07-07T05:44:01.525Z,70.60
2017-07-07T05:46:27.811Z,70.80
2017-07-07T05:48:54.084Z,70.70
2017-07-07T05:51:20.355Z,70.80
2017-07-07T05:53:46.633Z,70.10
2017-07-07T05:56:12.884Z,69.80
2017-07-07T05:58:39.138Z,69.00
2017-07-07T06:01:05.441Z,68.10
2017-07-07T06:03:31.755Z,67.10
2017-07-07T06:05:58.033Z,67.60
2017-07-07T06:08:24.318Z,67.50
2017-07-07T06:10:50.579Z,68.00
2017-07-07T06:13:17.233Z,68.00
2017-07-07T06:15:43.288Z,68.00
2017-07-07T06:18:09.354Z,67.90
2017-07-07T06:20:35.406Z,66.60
2017-07-07T06:23:01.668Z,66.30
2017-07-07T06:25:27.938Z,63.80
2017-07-07T06:27:54.565Z,60.90
2017-07-07T06:30:20.832Z,60.90
2017-07-07T06:32:47.116Z,62.30
2017-07-07T06:35:13.357Z,62.40
2017-07-07T06:37:39.600Z,62.70
2017-07-07T06:40:05.844Z,62.80
2017-07-07T06:42:32.095Z,63.40
2017-07-07T06:44:58.346Z,62.60
2017-07-07T06:47:24.639Z,63.40
2017-07-07T06:49:50.933Z,65.00
2017-07-07T06:52:17.243Z,65.80
2017-07-07T06:54:43.533Z,66.10
2017-07-07T06:57:09.792Z,66.50
2017-07-07T06:59:36.061Z,63.40
2017-07-07T07:02:02.326Z,63.30
2017-07-07T07:04:28.642Z,60.90
2017-07-07T07:06:54.930Z,59.80
2017-07-07T07:09:21.183Z,60.60
2017-07-07T07:11:47.436Z,60.10
2017-07-07T07:14:13.724Z,58.90
2017-07-07T07:16:40.363Z,58.20
2017-07-07T07:19:07.011Z,59.00
2017-07-07T07:21:33.939Z,57.80
2017-07-07T07:24:00.182Z,57.80
2017-07-07T07:26:26.437Z,59.20
2017-07-07T07:28:52.695Z,59.30
2017-07-07T07:31:18.950Z,58.70
2017-07-07T07:33:45.219Z,58.40
2017-07-07T07:36:11.481Z,58.70
2017-07-07T07:38:37.783Z,57.40
2017-07-07T07:41:04.047Z,58.40
2017-07-07T07:43:30.359Z,58.40
2017-07-07T07:45:56.590Z,59.30
2017-07-07T07:48:22.908Z,57.40
2017-07-07T07:50:49.197Z,58.40
2017-07-07T07:53:15.861Z,56.70
2017-07-07T07:55:42.166Z,56.70
2017-07-07T07:58:08.411Z,55.90
2017-07-07T08:00:34.696Z,56.70
2017-07-07T08:03:00.992Z,57.60
2017-07-07T08:05:27.355Z,56.90
2017-07-07T08:07:53.572Z,57.40
2017-07-07T08:10:19.840Z,57.10
2017-07-07T08:12:47.907Z,56.70
2017-07-07T08:15:14.175Z,56.70
2017-07-07T08:17:40.419Z,56.00
2017-07-07T08:20:06.697Z,55.00
2017-07-07T08:22:33.022Z,55.30
2017-07-07T08:24:59.662Z,56.50
2017-07-07T08:27:26.356Z,56.20
2017-07-07T08:29:52.635Z,56.20
2017-07-07T08:32:18.874Z,55.10
2017-07-07T08:34:45.149Z,53.80
2017-07-07T08:37:11.403Z,53.40
2017-07-07T08:39:37.701Z,53.00
2017-07-07T08:42:04.000Z,52.80
2017-07-07T08:44:30.274Z,51.80
2017-07-07T08:46:56.549Z,52.40
2017-07-07T08:49:23.180Z,53.20
2017-07-07T08:51:49.841Z,53.60
2017-07-07T08:54:16.123Z,53.60
2017-07-07T08:56:42.383Z,55.50
2017-07-07T08:59:08.712Z,57.20
2017-07-07T09:01:35.365Z,64.90
2017-07-07T09:04:02.032Z,65.00
2017-07-07T09:06:28.285Z,64.20
2017-07-07T09:08:54.618Z,64.90
2017-07-07T09:11:20.925Z,64.80
2017-07-07T09:13:47.230Z,65.20
2017-07-07T09:16:14.285Z,65.40
2017-07-07T09:18:40.552Z,65.90
2017-07-07T09:21:06.846Z,65.70
2017-07-07T09:23:33.622Z,64.00
2017-07-07T09:25:59.932Z,63.20
2017-07-07T09:28:26.214Z,63.20
2017-07-07T09:30:52.534Z,62.90
2017-07-07T09:33:19.209Z,62.50
2017-07-07T09:35:45.555Z,62.50
2017-07-07T09:38:11.875Z,62.10
2017-07-07T09:40:38.165Z,62.00
2017-07-07T09:43:04.512Z,63.20
2017-07-07T09:45:30.810Z,61.60
2017-07-07T09:47:57.091Z,62.40
2017-07-07T09:50:23.411Z,61.60
2017-07-07T09:52:49.735Z,61.30
2017-07-07T09:55:16.031Z,58.30
2017-07-07T09:57:42.325Z,58.60
2017-07-07T10:00:08.611Z,55.90
2017-07-07T10:02:34.859Z,56.80
2017-07-07T10:05:01.161Z,51.70
2017-07-07T10:07:27.519Z,54.20
2017-07-07T10:09:53.839Z,54.60
2017-07-07T10:12:20.147Z,53.00
2017-07-07T10:14:46.398Z,53.20
2017-07-07T10:17:12.667Z,53.30
2017-07-07T10:19:38.954Z,53.90
2017-07-07T10:22:05.234Z,55.50
2017-07-07T10:24:31.567Z,52.20
2017-07-07T10:26:57.865Z,53.80
2017-07-07T10:29:24.141Z,52.90
2017-07-07T10:31:50.443Z,52.20
2017-07-07T10:34:16.701Z,50.00
2017-07-07T10:36:43.003Z,50.10
2017-07-07T10:39:09.322Z,49.80
2017-07-07T10:41:35.608Z,47.30
2017-07-07T10:44:02.322Z,47.20
2017-07-07T10:46:28.633Z,47.20
2017-07-07T10:48:54.884Z,46.50
2017-07-07T10:51:21.610Z,45.40
2017-07-07T10:53:47.893Z,43.30
2017-07-07T10:56:14.142Z,43.80
2017-07-07T10:58:40.429Z,44.60
2017-07-07T11:01:07.107Z,46.60
2017-07-07T11:03:33.399Z,46.60
2017-07-07T11:05:59.695Z,46.60
2017-07-07T11:08:25.959Z,46.40
2017-07-07T11:10:53.085Z,42.90
2017-07-07T11:13:19.346Z,42.90
2017-07-07T11:15:45.679Z,43.00
2017-07-07T11:18:12.027Z,44.50
2017-07-07T11:20:38.286Z,43.90
2017-07-07T11:23:04.592Z,46.00
2017-07-07T11:25:30.858Z,46.00
2017-07-07T11:27:57.181Z,46.10
2017-07-07T11:30:23.478Z,45.40
2017-07-07T11:32:50.099Z,45.10
2017-07-07T11:35:16.384Z,44.60
2017-07-07T11:37:42.650Z,46.20
2017-07-07T11:40:09.515Z,46.70
2017-07-07T11:42:35.819Z,46.10
2017-07-07T11:45:02.497Z,46.80
2017-07-07T11:47:28.782Z,46.80
2017-07-07T11:49:55.056Z,45.10
2017-07-07T11:52:21.647Z,42.80
2017-07-07T11:54:47.928Z,38.80
2017-07-07T11:57:14.198Z,37.90
2017-07-07T11:59:40.885Z,31.00
2017-07-07T12:02:07.179Z,31.00
2017-07-07T12:04:33.457Z,29.10
2017-07-07T12:06:59.731Z,29.30
2017-07-07T12:09:26.027Z,33.70
2017-07-07T12:11:52.310Z,32.80
2017-07-07T12:14:18.567Z,33.30
2017-07-07T12:16:44.898Z,35.00
2017-07-07T12:19:11.184Z,35.00
2017-07-07T12:21:37.449Z,34.80
2017-07-07T12:24:03.751Z,33.20
2017-07-07T12:26:30.046Z,29.60
2017-07-07T12:28:56.317Z,29.40
2017-07-07T12:31:22.638Z,29.70
2017-07-07T12:33:49.335Z,27.00
2017-07-07T12:36:15.650Z,27.00
2017-07-07T12:38:41.959Z,26.60
2017-07-07T12:41:08.311Z,26.10
2017-07-07T12:43:34.709Z,26.20
2017-07-07T12:46:01.022Z,28.50
2017-07-07T12:48:27.685Z,29.70
2017-07-07T12:50:53.937Z,29.70
2017-07-07T12:53:20.221Z,32.10
2017-07-07T12:55:46.483Z,34.50
2017-07-07T12:58:12.789Z,37.30
2017-07-07T13:00:39.070Z,38.60
2017-07-07T13:03:05.352Z,38.80
2017-07-07T13:05:31.602Z,36.70
2017-07-07T13:07:57.871Z,36.60
2017-07-07T13:10:24.195Z,36.50
2017-07-07T13:12:50.477Z,38.70
2017-07-07T13:15:16.752Z,37.60
2017-07-07T13:17:43.044Z,34.10
2017-07-07T13:20:09.343Z,30.80
2017-07-07T13:22:35.635Z,29.50
2017-07-07T13:25:01.975Z,31.10
2017-07-07T13:27:28.290Z,31.20
2017-07-07T13:29:54.571Z,31.60
2017-07-07T13:32:20.938Z,31.40
2017-07-07T13:34:47.221Z,31.10
2017-07-07T13:37:13.883Z,30.80
2017-07-07T13:39:40.176Z,30.80
2017-07-07T13:42:06.490Z,32.00
2017-07-07T13:44:32.802Z,32.60
2017-07-07T13:46:59.083Z,32.60
2017-07-07T13:49:25.375Z,29.60
2017-07-07T13:51:51.672Z,28.10
2017-07-07T13:54:17.999Z,27.40
2017-07-07T13:56:44.332Z,26.50
2017-07-07T13:59:10.646Z,26.00
2017-07-07T14:01:37.002Z,27.80
2017-07-07T14:04:03.278Z,29.60
2017-07-07T14:06:51.462Z,28.00
2017-07-07T14:09:17.758Z,26.90
2017-07-07T14:11:44.672Z,23.60
2017-07-07T14:14:11.869Z,23.60
2017-07-07T14:16:38.141Z,21.80
2017-07-07T14:19:04.443Z,21.40
2017-07-07T14:21:31.243Z,21.10
2017-07-07T14:23:57.538Z,19.30
2017-07-07T14:26:23.853Z,19.10
2017-07-07T14:28:50.132Z,19.40
2017-07-07T14:31:16.404Z,18.90
2017-07-07T14:33:43.161Z,19.40
2017-07-07T14:36:09.477Z,20.10
2017-07-07T14:38:35.763Z,20.50
2017-07-07T14:41:02.868Z,21.90
2017-07-07T14:43:29.211Z,21.90
2017-07-07T14:45:55.515Z,23.40
2017-07-07T14:48:21.805Z,23.90
2017-07-07T14:50:48.083Z,25.00
2017-07-07T14:53:14.390Z,25.70
2017-07-07T14:55:41.066Z,26.60
2017-07-07T14:58:07.352Z,30.60
2017-07-07T15:00:33.670Z,34.90
2017-07-07T15:03:00.331Z,39.20
2017-07-07T15:05:27.545Z,39.20
2017-07-07T15:07:53.836Z,39.40
2017-07-07T15:10:20.127Z,40.90
2017-07-07T15:12:46.414Z,42.00
2017-07-07T15:15:12.719Z,42.00
2017-07-07T15:17:39.397Z,42.40
2017-07-07T15:20:05.682Z,43.00
2017-07-07T15:22:31.960Z,44.10
2017-07-07T15:24:58.661Z,44.20
2017-07-07T15:27:24.987Z,44.20
2017-07-07T15:29:51.275Z,44.00
2017-07-07T15:32:17.955Z,43.10
2017-07-07T15:34:44.241Z,43.10
2017-07-07T15:37:10.532Z,44.00
2017-07-07T15:39:36.798Z,45.30
2017-07-07T15:42:03.480Z,45.70
2017-07-07T15:44:29.775Z,45.80
2017-07-07T15:46:56.032Z,44.60
2017-07-07T15:49:22.545Z,45.70
2017-07-07T15:51:48.797Z,46.80
2017-07-07T15:54:15.097Z,47.80
2017-07-07T15:56:41.362Z,45.20
2017-07-07T15:59:07.639Z,40.40
2017-07-07T16:01:34.974Z,35.50
2017-07-07T16:04:01.248Z,35.50
2017-07-07T16:06:27.511Z,34.40
2017-07-07T16:08:53.782Z,32.60
2017-07-07T16:11:20.390Z,35.40
2017-07-07T16:13:47.006Z,35.40
2017-07-07T16:16:13.297Z,38.00
2017-07-07T16:18:39.625Z,39.50
2017-07-07T16:21:05.860Z,42.30
2017-07-07T16:23:32.175Z,43.00
2017-07-07T16:25:58.823Z,44.50
2017-07-07T16:28:25.501Z,45.40
2017-07-07T16:30:51.754Z,45.40
2017-07-07T16:33:18.035Z,45.70
2017-07-07T16:35:44.282Z,44.80
2017-07-07T16:38:10.540Z,42.50
2017-07-07T16:40:36.816Z,41.10
2017-07-07T16:43:04.011Z,41.00
2017-07-07T16:45:30.290Z,41.30
2017-07-07T16:47:56.940Z,43.50
2017-07-07T16:50:23.202Z,43.50
2017-07-07T16:52:49.830Z,45.40
2017-07-07T16:55:16.169Z,45.90
2017-07-07T16:57:42.416Z,46.20
2017-07-07T17:00:08.683Z,47.30
2017-07-07T17:02:34.924Z,51.40
2017-07-07T17:05:01.190Z,53.30
2017-07-07T17:07:27.466Z,53.40
2017-07-07T17:09:53.748Z,50.70
2017-07-07T17:12:20.054Z,51.20
2017-07-07T17:14:46.336Z,54.50
2017-07-07T17:17:12.587Z,50.80
2017-07-07T17:19:39.713Z,50.80
2017-07-07T17:22:05.983Z,50.20
2017-07-07T17:24:32.281Z,52.50
2017-07-07T17:26:58.578Z,52.40
2017-07-07T17:29:25.660Z,52.40
2017-07-07T17:31:52.852Z,52.90
2017-07-07T17:34:19.976Z,53.80
2017-07-07T17:36:46.274Z,54.70
2017-07-07T17:39:12.562Z,54.90
2017-07-07T17:41:38.843Z,54.80
2017-07-07T17:44:05.508Z,55.00
2017-07-07T17:46:31.798Z,55.00
2017-07-07T17:48:58.109Z,55.40
2017-07-07T17:51:24.363Z,54.60
2017-07-07T17:53:50.667Z,55.20
2017-07-07T17:56:17.842Z,56.10
2017-07-07T17:58:44.144Z,56.60
2017-07-07T18:01:10.404Z,56.70
2017-07-07T18:03:36.689Z,56.80
2017-07-07T18:06:02.996Z,57.30
2017-07-07T18:08:29.289Z,56.70
2017-07-07T18:10:55.555Z,57.30
2017-07-07T18:13:21.811Z,57.90
2017-07-07T18:15:48.102Z,58.10
2017-07-07T18:18:14.390Z,58.60
2017-07-07T18:20:40.700Z,59.90
2017-07-07T18:23:06.974Z,60.90
2017-07-07T18:25:33.648Z,61.50
2017-07-07T18:27:59.945Z,61.50
2017-07-07T18:30:26.276Z,61.80
2017-07-07T18:32:52.926Z,62.50
2017-07-07T18:35:19.265Z,62.50
2017-07-07T18:37:45.568Z,62.50
2017-07-07T18:40:12.235Z,63.20
2017-07-07T18:42:38.537Z,63.20
2017-07-07T18:45:04.851Z,63.50
2017-07-07T18:47:31.137Z,62.90
2017-07-07T18:49:57.453Z,62.90
2017-07-07T18:52:23.745Z,62.20
2017-07-07T18:54:50.032Z,61.80
2017-07-07T18:57:16.284Z,61.50
2017-07-07T18:59:42.579Z,62.40
2017-07-07T19:02:08.830Z,63.30
2017-07-07T19:04:35.126Z,64.30
2017-07-07T19:07:01.413Z,66.00
2017-07-07T19:09:27.706Z,65.00
2017-07-07T19:11:54.822Z,63.80
2017-07-07T19:14:21.465Z,56.30
2017-07-07T19:16:48.133Z,61.00
2017-07-07T19:19:14.427Z,61.10
2017-07-07T19:21:40.756Z,63.90
2017-07-07T19:24:07.411Z,70.00
2017-07-07T19:26:33.716Z,69.90
2017-07-07T19:28:59.982Z,72.00
2017-07-07T19:31:26.368Z,69.70
2017-07-07T19:33:52.655Z,74.80
2017-07-07T19:36:19.005Z,72.50
2017-07-07T19:38:45.335Z,72.90
2017-07-07T19:41:11.658Z,74.70
2017-07-07T19:43:37.977Z,76.10
2017-07-07T19:46:04.414Z,76.90
2017-07-07T19:48:30.723Z,76.80
2017-07-07T19:50:57.103Z,77.90
2017-07-07T19:53:23.507Z,75.40
2017-07-07T19:55:49.894Z,74.40
2017-07-07T19:58:16.253Z,72.90
2017-07-07T20:00:42.600Z,74.50
2017-07-07T20:03:08.897Z,76.00
2017-07-07T20:05:36.051Z,75.00
2017-07-07T20:08:02.386Z,75.70
2017-07-07T20:10:28.752Z,76.30
2017-07-07T20:12:55.097Z,76.30
2017-07-07T20:15:21.860Z,77.00
2017-07-07T20:17:48.233Z,76.40
2017-07-07T20:20:15.412Z,75.10
2017-07-07T20:22:41.707Z,75.70
2017-07-07T20:25:08.013Z,76.60
2017-07-07T20:27:34.303Z,75.20
2017-07-07T20:30:01.834Z,74.10
2017-07-07T20:32:28.122Z,74.30
2017-07-07T20:34:54.420Z,74.60
2017-07-07T20:37:20.705Z,75.90
2017-07-07T20:39:47.098Z,76.50
2017-07-07T20:42:13.401Z,75.70
2017-07-07T20:44:40.503Z,75.40
2017-07-07T20:47:07.584Z,76.40
2017-07-07T20:49:33.885Z,77.00
2017-07-07T20:52:01.093Z,74.10
2017-07-07T20:54:28.349Z,73.80
2017-07-07T20:56:54.663Z,74.30
2017-07-07T20:59:20.932Z,74.50
2017-07-07T21:01:47.270Z,75.50
2017-07-07T21:04:13.570Z,77.00
2017-07-07T21:06:39.885Z,78.10
2017-07-07T21:09:06.167Z,76.30
2017-07-07T21:11:32.456Z,76.70
2017-07-07T21:13:58.731Z,76.10
2017-07-07T21:16:25.306Z,77.10
2017-07-07T21:18:51.591Z,76.80
2017-07-07T21:21:17.937Z,77.50
2017-07-07T21:23:44.203Z,78.50
2017-07-07T21:26:10.796Z,77.30
2017-07-07T21:28:38.349Z,76.10
2017-07-07T21:31:04.634Z,76.60
2017-07-07T21:33:32.655Z,77.60
2017-07-07T21:35:58.913Z,77.40
2017-07-07T21:38:25.215Z,78.20
2017-07-07T21:40:52.187Z,77.90
2017-07-07T21:43:18.479Z,77.90
2017-07-07T21:45:44.735Z,78.30
2017-07-07T21:48:11.021Z,79.00
2017-07-07T21:50:38.244Z,79.60
2017-07-07T21:53:04.545Z,79.70
2017-07-07T21:55:30.817Z,79.20
2017-07-07T21:57:57.103Z,79.00
2017-07-07T22:00:23.367Z,77.60
2017-07-07T22:02:49.664Z,78.10
2017-07-07T22:05:15.915Z,78.40
2017-07-07T22:07:42.213Z,78.90
2017-07-07T22:10:15.283Z,78.40
2017-07-07T22:12:41.557Z,77.60
2017-07-07T22:15:07.842Z,77.30
2017-07-07T22:17:35.411Z,77.80
2017-07-07T22:20:01.666Z,77.80
2017-07-07T22:22:27.950Z,77.30
2017-07-07T22:24:54.216Z,79.00
2017-07-07T22:27:20.506Z,77.60
2017-07-07T22:29:46.790Z,78.10
2017-07-07T22:32:13.084Z,77.70
2017-07-07T22:34:39.394Z,78.20
2017-07-07T22:37:05.708Z,78.10
2017-07-07T22:39:31.960Z,77.70
2017-07-07T22:41:58.606Z,78.30
2017-07-07T22:44:25.289Z,78.30
2017-07-07T22:46:51.571Z,78.70
2017-07-07T22:49:17.840Z,78.10
2017-07-07T22:51:44.118Z,77.70
2017-07-07T22:54:16.092Z,77.20
2017-07-07T22:56:44.251Z,77.40
2017-07-07T22:59:11.431Z,77.90
2017-07-07T23:01:39.810Z,78.70
2017-07-07T23:04:06.124Z,78.20
2017-07-07T23:06:36.029Z,77.80
2017-07-07T23:09:03.669Z,78.90
2017-07-07T23:11:30.616Z,78.90
2017-07-07T23:13:56.868Z,77.50
2017-07-07T23:16:23.143Z,78.50
2017-07-07T23:18:49.416Z,78.00
2017-07-07T23:21:16.069Z,78.70
2017-07-07T23:23:42.359Z,78.70
2017-07-07T23:26:08.619Z,79.30
2017-07-07T23:28:34.897Z,79.00
2017-07-07T23:31:01.210Z,79.00
2017-07-07T23:33:27.512Z,78.30
2017-07-07T23:35:53.793Z,78.30
2017-07-07T23:38:20.054Z,78.00
2017-07-07T23:40:46.706Z,77.90
2017-07-07T23:43:13.372Z,78.90
2017-07-07T23:45:39.606Z,78.90
2017-07-07T23:48:05.865Z,78.60
2017-07-07T23:50:32.137Z,79.60
2017-07-07T23:52:58.424Z,79.30
2017-07-07T23:55:24.720Z,78.70
2017-07-07T23:57:50.947Z,78.50
